sensor_id;sensor_type;location;lat;lon;timestamp;P1;durP1;ratioP1;P2;durP2;ratioP2
68214;SDS011;55036;52.138;5.236;2023-04-16T00:01:46;12.18;;;2.78;;
68214;SDS011;55036;52.138;5.236;2023-04-16T00:04:12;6.18;;;1.90;;
68214;SDS011;55036;52.138;5.236;2023-04-16T00:06:39;8.65;;;1.95;;
68214;SDS011;55036;52.138;5.236;2023-04-16T00:09:06;9.48;;;2.08;;
68214;SDS011;55036;52.138;5.236;2023-04-16T00:11:33;7.70;;;2.13;;
68214;SDS011;55036;52.138;5.236;2023-04-16T00:14:00;9.77;;;2.15;;
68214;SDS011;55036;52.138;5.236;2023-04-16T00:16:26;6.60;;;2.40;;
68214;SDS011;55036;52.138;5.236;2023-04-16T00:18:53;5.70;;;1.73;;
68214;SDS011;55036;52.138;5.236;2023-04-16T00:21:20;11.63;;;2.22;;
68214;SDS011;55036;52.138;5.236;2023-04-16T00:23:46;7.38;;;1.83;;
68214;SDS011;55036;52.138;5.236;2023-04-16T00:26:13;7.55;;;2.03;;
68214;SDS011;55036;52.138;5.236;2023-04-16T00:28:40;12.77;;;2.55;;
68214;SDS011;55036;52.138;5.236;2023-04-16T00:31:06;7.22;;;2.25;;
68214;SDS011;55036;52.138;5.236;2023-04-16T00:33:33;6.25;;;2.10;;
68214;SDS011;55036;52.138;5.236;2023-04-16T00:36:00;6.68;;;2.33;;
68214;SDS011;55036;52.138;5.236;2023-04-16T00:38:27;7.38;;;1.98;;
68214;SDS011;55036;52.138;5.236;2023-04-16T00:40:55;5.75;;;1.85;;
68214;SDS011;55036;52.138;5.236;2023-04-16T00:43:25;5.60;;;1.75;;
68214;SDS011;55036;52.138;5.236;2023-04-16T00:45:52;7.07;;;2.13;;
68214;SDS011;55036;52.138;5.236;2023-04-16T00:48:21;8.43;;;1.98;;
68214;SDS011;55036;52.138;5.236;2023-04-16T00:50:49;6.00;;;1.88;;
68214;SDS011;55036;52.138;5.236;2023-04-16T00:53:16;4.82;;;2.03;;
68214;SDS011;55036;52.138;5.236;2023-04-16T00:55:43;5.75;;;1.85;;
68214;SDS011;55036;52.138;5.236;2023-04-16T00:58:11;8.35;;;2.10;;
68214;SDS011;55036;52.138;5.236;2023-04-16T01:00:37;5.78;;;1.77;;
68214;SDS011;55036;52.138;5.236;2023-04-16T01:03:04;6.30;;;1.88;;
68214;SDS011;55036;52.138;5.236;2023-04-16T01:05:31;5.60;;;2.30;;
68214;SDS011;55036;52.138;5.236;2023-04-16T01:07:59;7.82;;;2.58;;
68214;SDS011;55036;52.138;5.236;2023-04-16T01:10:26;7.75;;;2.78;;
68214;SDS011;55036;52.138;5.236;2023-04-16T01:12:53;5.53;;;2.30;;
68214;SDS011;55036;52.138;5.236;2023-04-16T01:15:19;9.13;;;2.47;;
68214;SDS011;55036;52.138;5.236;2023-04-16T01:17:46;6.85;;;2.17;;
68214;SDS011;55036;52.138;5.236;2023-04-16T01:20:13;6.50;;;2.42;;
68214;SDS011;55036;52.138;5.236;2023-04-16T01:22:40;6.22;;;2.28;;
68214;SDS011;55036;52.138;5.236;2023-04-16T01:25:06;6.05;;;2.08;;
68214;SDS011;55036;52.138;5.236;2023-04-16T01:27:33;7.10;;;2.90;;
68214;SDS011;55036;52.138;5.236;2023-04-16T01:30:00;7.13;;;2.75;;
68214;SDS011;55036;52.138;5.236;2023-04-16T01:32:26;5.47;;;2.78;;
68214;SDS011;55036;52.138;5.236;2023-04-16T01:34:56;8.80;;;2.78;;
68214;SDS011;55036;52.138;5.236;2023-04-16T01:37:23;10.13;;;3.63;;
68214;SDS011;55036;52.138;5.236;2023-04-16T01:39:49;8.10;;;3.00;;
68214;SDS011;55036;52.138;5.236;2023-04-16T01:42:16;7.80;;;3.22;;
68214;SDS011;55036;52.138;5.236;2023-04-16T01:44:43;9.02;;;2.65;;
68214;SDS011;55036;52.138;5.236;2023-04-16T01:47:11;5.00;;;3.03;;
68214;SDS011;55036;52.138;5.236;2023-04-16T01:49:38;6.53;;;2.85;;
68214;SDS011;55036;52.138;5.236;2023-04-16T01:52:05;7.47;;;3.25;;
68214;SDS011;55036;52.138;5.236;2023-04-16T01:54:33;6.32;;;2.90;;
68214;SDS011;55036;52.138;5.236;2023-04-16T01:57:00;6.50;;;2.95;;
68214;SDS011;55036;52.138;5.236;2023-04-16T01:59:27;10.77;;;3.33;;
68214;SDS011;55036;52.138;5.236;2023-04-16T02:01:53;6.53;;;3.22;;
68214;SDS011;55036;52.138;5.236;2023-04-16T02:04:20;8.32;;;3.17;;
68214;SDS011;55036;52.138;5.236;2023-04-16T02:06:47;8.07;;;3.63;;
68214;SDS011;55036;52.138;5.236;2023-04-16T02:09:14;7.57;;;3.90;;
68214;SDS011;55036;52.138;5.236;2023-04-16T02:11:40;8.07;;;3.83;;
68214;SDS011;55036;52.138;5.236;2023-04-16T02:14:07;7.72;;;3.90;;
68214;SDS011;55036;52.138;5.236;2023-04-16T02:16:34;10.20;;;4.18;;
68214;SDS011;55036;52.138;5.236;2023-04-16T02:19:00;9.55;;;3.60;;
68214;SDS011;55036;52.138;5.236;2023-04-16T02:21:28;6.72;;;3.40;;
68214;SDS011;55036;52.138;5.236;2023-04-16T02:23:55;8.25;;;3.50;;
68214;SDS011;55036;52.138;5.236;2023-04-16T02:26:22;6.88;;;3.92;;
68214;SDS011;55036;52.138;5.236;2023-04-16T02:28:49;9.93;;;4.25;;
68214;SDS011;55036;52.138;5.236;2023-04-16T02:31:16;13.20;;;4.13;;
68214;SDS011;55036;52.138;5.236;2023-04-16T02:33:44;12.73;;;3.40;;
68214;SDS011;55036;52.138;5.236;2023-04-16T02:36:11;9.90;;;3.97;;
68214;SDS011;55036;52.138;5.236;2023-04-16T02:38:38;15.75;;;4.15;;
68214;SDS011;55036;52.138;5.236;2023-04-16T02:41:04;13.38;;;3.90;;
68214;SDS011;55036;52.138;5.236;2023-04-16T02:43:31;10.52;;;4.43;;
68214;SDS011;55036;52.138;5.236;2023-04-16T02:45:58;8.02;;;3.65;;
68214;SDS011;55036;52.138;5.236;2023-04-16T02:48:24;10.15;;;4.05;;
68214;SDS011;55036;52.138;5.236;2023-04-16T02:50:51;11.43;;;4.32;;
68214;SDS011;55036;52.138;5.236;2023-04-16T02:53:18;10.02;;;4.00;;
68214;SDS011;55036;52.138;5.236;2023-04-16T02:55:51;8.85;;;3.72;;
68214;SDS011;55036;52.138;5.236;2023-04-16T02:58:19;9.13;;;4.45;;
68214;SDS011;55036;52.138;5.236;2023-04-16T03:00:46;7.47;;;3.97;;
68214;SDS011;55036;52.138;5.236;2023-04-16T03:03:13;8.95;;;4.28;;
68214;SDS011;55036;52.138;5.236;2023-04-16T03:05:40;9.43;;;4.20;;
68214;SDS011;55036;52.138;5.236;2023-04-16T03:08:07;14.00;;;4.20;;
68214;SDS011;55036;52.138;5.236;2023-04-16T03:10:34;13.38;;;4.60;;
68214;SDS011;55036;52.138;5.236;2023-04-16T03:13:01;13.57;;;4.13;;
68214;SDS011;55036;52.138;5.236;2023-04-16T03:15:28;11.93;;;4.07;;
68214;SDS011;55036;52.138;5.236;2023-04-16T03:17:56;12.43;;;4.80;;
68214;SDS011;55036;52.138;5.236;2023-04-16T03:20:23;12.45;;;4.13;;
68214;SDS011;55036;52.138;5.236;2023-04-16T03:22:49;13.93;;;4.55;;
68214;SDS011;55036;52.138;5.236;2023-04-16T03:25:19;9.35;;;4.25;;
68214;SDS011;55036;52.138;5.236;2023-04-16T03:27:46;11.63;;;3.88;;
68214;SDS011;55036;52.138;5.236;2023-04-16T03:30:13;12.85;;;4.43;;
68214;SDS011;55036;52.138;5.236;2023-04-16T03:32:40;11.60;;;4.28;;
68214;SDS011;55036;52.138;5.236;2023-04-16T03:35:07;9.05;;;4.78;;
68214;SDS011;55036;52.138;5.236;2023-04-16T03:37:34;8.93;;;4.45;;
68214;SDS011;55036;52.138;5.236;2023-04-16T03:40:01;11.70;;;4.97;;
68214;SDS011;55036;52.138;5.236;2023-04-16T03:42:29;10.18;;;4.90;;
68214;SDS011;55036;52.138;5.236;2023-04-16T03:44:55;9.00;;;4.60;;
68214;SDS011;55036;52.138;5.236;2023-04-16T03:47:22;9.63;;;4.00;;
68214;SDS011;55036;52.138;5.236;2023-04-16T03:49:49;15.27;;;4.57;;
68214;SDS011;55036;52.138;5.236;2023-04-16T03:52:16;15.20;;;4.78;;
68214;SDS011;55036;52.138;5.236;2023-04-16T03:54:42;10.65;;;4.82;;
68214;SDS011;55036;52.138;5.236;2023-04-16T03:57:09;13.13;;;4.63;;
68214;SDS011;55036;52.138;5.236;2023-04-16T03:59:35;11.13;;;5.25;;
68214;SDS011;55036;52.138;5.236;2023-04-16T04:02:02;16.10;;;6.43;;
68214;SDS011;55036;52.138;5.236;2023-04-16T04:04:29;16.70;;;5.60;;
68214;SDS011;55036;52.138;5.236;2023-04-16T04:06:56;13.63;;;5.50;;
68214;SDS011;55036;52.138;5.236;2023-04-16T04:09:23;12.07;;;6.03;;
68214;SDS011;55036;52.138;5.236;2023-04-16T04:11:49;16.70;;;6.63;;
68214;SDS011;55036;52.138;5.236;2023-04-16T04:14:16;16.13;;;5.45;;
68214;SDS011;55036;52.138;5.236;2023-04-16T04:16:43;18.88;;;6.45;;
68214;SDS011;55036;52.138;5.236;2023-04-16T04:19:10;17.15;;;6.72;;
68214;SDS011;55036;52.138;5.236;2023-04-16T04:21:38;13.20;;;6.28;;
68214;SDS011;55036;52.138;5.236;2023-04-16T04:24:05;14.63;;;6.47;;
68214;SDS011;55036;52.138;5.236;2023-04-16T04:26:32;22.20;;;7.72;;
68214;SDS011;55036;52.138;5.236;2023-04-16T04:28:58;17.73;;;6.82;;
68214;SDS011;55036;52.138;5.236;2023-04-16T04:31:25;18.45;;;6.43;;
68214;SDS011;55036;52.138;5.236;2023-04-16T04:33:52;14.93;;;6.47;;
68214;SDS011;55036;52.138;5.236;2023-04-16T04:36:19;16.42;;;6.82;;
68214;SDS011;55036;52.138;5.236;2023-04-16T04:38:45;24.60;;;8.50;;
68214;SDS011;55036;52.138;5.236;2023-04-16T04:41:12;24.70;;;7.55;;
68214;SDS011;55036;52.138;5.236;2023-04-16T04:43:39;16.48;;;8.13;;
68214;SDS011;55036;52.138;5.236;2023-04-16T04:46:05;22.38;;;8.32;;
68214;SDS011;55036;52.138;5.236;2023-04-16T04:48:32;19.10;;;7.72;;
68214;SDS011;55036;52.138;5.236;2023-04-16T04:50:59;24.58;;;8.43;;
68214;SDS011;55036;52.138;5.236;2023-04-16T04:53:29;26.50;;;8.57;;
68214;SDS011;55036;52.138;5.236;2023-04-16T04:55:56;17.48;;;8.40;;
68214;SDS011;55036;52.138;5.236;2023-04-16T04:58:37;26.90;;;9.17;;
68214;SDS011;55036;52.138;5.236;2023-04-16T05:01:03;23.40;;;8.77;;
68214;SDS011;55036;52.138;5.236;2023-04-16T05:03:31;24.35;;;8.95;;
68214;SDS011;55036;52.138;5.236;2023-04-16T05:05:58;24.65;;;8.93;;
68214;SDS011;55036;52.138;5.236;2023-04-16T05:08:24;30.98;;;10.38;;
68214;SDS011;55036;52.138;5.236;2023-04-16T05:10:51;29.95;;;10.13;;
68214;SDS011;55036;52.138;5.236;2023-04-16T05:13:17;21.42;;;9.13;;
68214;SDS011;55036;52.138;5.236;2023-04-16T05:15:44;26.88;;;9.73;;
68214;SDS011;55036;52.138;5.236;2023-04-16T05:18:11;29.38;;;9.60;;
68214;SDS011;55036;52.138;5.236;2023-04-16T05:20:37;28.23;;;10.35;;
68214;SDS011;55036;52.138;5.236;2023-04-16T05:23:04;27.05;;;9.75;;
68214;SDS011;55036;52.138;5.236;2023-04-16T05:25:31;19.35;;;8.95;;
68214;SDS011;55036;52.138;5.236;2023-04-16T05:27:57;30.60;;;9.70;;
68214;SDS011;55036;52.138;5.236;2023-04-16T05:30:24;19.58;;;9.02;;
68214;SDS011;55036;52.138;5.236;2023-04-16T05:32:51;21.90;;;9.43;;
68214;SDS011;55036;52.138;5.236;2023-04-16T05:35:18;21.60;;;10.38;;
68214;SDS011;55036;52.138;5.236;2023-04-16T05:37:44;22.80;;;10.35;;
68214;SDS011;55036;52.138;5.236;2023-04-16T05:40:12;23.23;;;10.80;;
68214;SDS011;55036;52.138;5.236;2023-04-16T05:42:39;21.45;;;10.25;;
68214;SDS011;55036;52.138;5.236;2023-04-16T05:45:06;21.52;;;9.65;;
68214;SDS011;55036;52.138;5.236;2023-04-16T05:47:33;26.58;;;10.75;;
68214;SDS011;55036;52.138;5.236;2023-04-16T05:49:59;24.63;;;10.85;;
68214;SDS011;55036;52.138;5.236;2023-04-16T05:52:26;25.35;;;10.48;;
68214;SDS011;55036;52.138;5.236;2023-04-16T05:54:53;27.67;;;9.82;;
68214;SDS011;55036;52.138;5.236;2023-04-16T05:57:20;27.98;;;10.82;;
68214;SDS011;55036;52.138;5.236;2023-04-16T05:59:46;27.38;;;11.27;;
68214;SDS011;55036;52.138;5.236;2023-04-16T06:02:13;21.58;;;9.13;;
68214;SDS011;55036;52.138;5.236;2023-04-16T06:04:40;20.17;;;9.07;;
68214;SDS011;55036;52.138;5.236;2023-04-16T06:07:07;19.58;;;9.18;;
68214;SDS011;55036;52.138;5.236;2023-04-16T06:09:33;25.85;;;10.25;;
68214;SDS011;55036;52.138;5.236;2023-04-16T06:12:01;20.55;;;10.05;;
68214;SDS011;55036;52.138;5.236;2023-04-16T06:14:27;19.55;;;9.10;;
68214;SDS011;55036;52.138;5.236;2023-04-16T06:16:54;19.05;;;9.45;;
68214;SDS011;55036;52.138;5.236;2023-04-16T06:19:21;24.20;;;10.40;;
68214;SDS011;55036;52.138;5.236;2023-04-16T06:21:48;25.83;;;9.52;;
68214;SDS011;55036;52.138;5.236;2023-04-16T06:24:15;19.20;;;9.43;;
68214;SDS011;55036;52.138;5.236;2023-04-16T06:26:43;20.17;;;9.15;;
68214;SDS011;55036;52.138;5.236;2023-04-16T06:29:10;18.77;;;9.40;;
68214;SDS011;55036;52.138;5.236;2023-04-16T06:31:37;27.52;;;9.93;;
68214;SDS011;55036;52.138;5.236;2023-04-16T06:34:03;23.30;;;9.40;;
68214;SDS011;55036;52.138;5.236;2023-04-16T06:36:30;27.60;;;9.90;;
68214;SDS011;55036;52.138;5.236;2023-04-16T06:38:57;19.08;;;9.18;;
68214;SDS011;55036;52.138;5.236;2023-04-16T06:41:23;20.33;;;8.60;;
68214;SDS011;55036;52.138;5.236;2023-04-16T06:43:51;19.35;;;8.90;;
68214;SDS011;55036;52.138;5.236;2023-04-16T06:46:18;20.90;;;8.82;;
68214;SDS011;55036;52.138;5.236;2023-04-16T06:48:45;21.38;;;9.75;;
68214;SDS011;55036;52.138;5.236;2023-04-16T06:51:12;20.05;;;9.65;;
68214;SDS011;55036;52.138;5.236;2023-04-16T06:53:38;23.30;;;9.68;;
68214;SDS011;55036;52.138;5.236;2023-04-16T06:56:05;20.80;;;8.73;;
68214;SDS011;55036;52.138;5.236;2023-04-16T06:58:32;17.25;;;8.48;;
68214;SDS011;55036;52.138;5.236;2023-04-16T07:00:59;20.83;;;9.45;;
68214;SDS011;55036;52.138;5.236;2023-04-16T07:03:27;21.40;;;9.38;;
68214;SDS011;55036;52.138;5.236;2023-04-16T07:05:55;18.98;;;8.60;;
68214;SDS011;55036;52.138;5.236;2023-04-16T07:08:21;20.70;;;9.77;;
68214;SDS011;55036;52.138;5.236;2023-04-16T07:10:48;24.17;;;9.63;;
68214;SDS011;55036;52.138;5.236;2023-04-16T07:13:15;15.82;;;8.30;;
68214;SDS011;55036;52.138;5.236;2023-04-16T07:15:43;21.33;;;9.57;;
68214;SDS011;55036;52.138;5.236;2023-04-16T07:18:10;21.75;;;9.90;;
68214;SDS011;55036;52.138;5.236;2023-04-16T07:20:37;20.05;;;10.48;;
68214;SDS011;55036;52.138;5.236;2023-04-16T07:23:03;21.90;;;10.43;;
68214;SDS011;55036;52.138;5.236;2023-04-16T07:25:30;23.20;;;10.35;;
68214;SDS011;55036;52.138;5.236;2023-04-16T07:27:57;20.48;;;9.55;;
68214;SDS011;55036;52.138;5.236;2023-04-16T07:30:23;24.75;;;10.15;;
68214;SDS011;55036;52.138;5.236;2023-04-16T07:32:50;19.23;;;10.00;;
68214;SDS011;55036;52.138;5.236;2023-04-16T07:35:17;17.85;;;9.85;;
68214;SDS011;55036;52.138;5.236;2023-04-16T07:37:44;15.68;;;9.25;;
68214;SDS011;55036;52.138;5.236;2023-04-16T07:40:10;21.15;;;10.23;;
68214;SDS011;55036;52.138;5.236;2023-04-16T07:42:37;15.60;;;8.65;;
68214;SDS011;55036;52.138;5.236;2023-04-16T07:45:04;19.33;;;10.13;;
68214;SDS011;55036;52.138;5.236;2023-04-16T07:47:31;17.15;;;8.77;;
68214;SDS011;55036;52.138;5.236;2023-04-16T07:49:58;14.23;;;8.70;;
68214;SDS011;55036;52.138;5.236;2023-04-16T07:52:25;17.10;;;8.98;;
68214;SDS011;55036;52.138;5.236;2023-04-16T07:54:51;12.70;;;7.88;;
68214;SDS011;55036;52.138;5.236;2023-04-16T07:57:18;17.55;;;9.05;;
68214;SDS011;55036;52.138;5.236;2023-04-16T07:59:46;15.20;;;8.68;;
68214;SDS011;55036;52.138;5.236;2023-04-16T08:02:13;15.82;;;8.80;;
68214;SDS011;55036;52.138;5.236;2023-04-16T08:04:41;12.30;;;7.53;;
68214;SDS011;55036;52.138;5.236;2023-04-16T08:07:09;16.38;;;7.80;;
68214;SDS011;55036;52.138;5.236;2023-04-16T08:09:35;12.95;;;7.80;;
68214;SDS011;55036;52.138;5.236;2023-04-16T08:12:16;19.67;;;8.55;;
68214;SDS011;55036;52.138;5.236;2023-04-16T08:14:43;13.07;;;7.05;;
68214;SDS011;55036;52.138;5.236;2023-04-16T08:17:11;13.73;;;8.15;;
68214;SDS011;55036;52.138;5.236;2023-04-16T08:19:38;15.80;;;7.50;;
68214;SDS011;55036;52.138;5.236;2023-04-16T08:22:05;11.77;;;7.30;;
68214;SDS011;55036;52.138;5.236;2023-04-16T08:24:31;12.02;;;7.53;;
68214;SDS011;55036;52.138;5.236;2023-04-16T08:26:58;14.05;;;7.72;;
68214;SDS011;55036;52.138;5.236;2023-04-16T08:29:42;12.45;;;6.72;;
68214;SDS011;55036;52.138;5.236;2023-04-16T08:32:09;16.20;;;7.50;;
68214;SDS011;55036;52.138;5.236;2023-04-16T08:34:36;10.85;;;7.03;;
68214;SDS011;55036;52.138;5.236;2023-04-16T08:37:03;12.63;;;6.97;;
68214;SDS011;55036;52.138;5.236;2023-04-16T08:39:30;11.02;;;6.75;;
68214;SDS011;55036;52.138;5.236;2023-04-16T08:41:56;10.88;;;6.20;;
68214;SDS011;55036;52.138;5.236;2023-04-16T08:44:29;10.32;;;6.45;;
68214;SDS011;55036;52.138;5.236;2023-04-16T08:46:59;9.50;;;5.85;;
68214;SDS011;55036;52.138;5.236;2023-04-16T08:49:26;15.38;;;5.93;;
68214;SDS011;55036;52.138;5.236;2023-04-16T08:51:53;8.25;;;5.63;;
68214;SDS011;55036;52.138;5.236;2023-04-16T08:57:03;9.30;;;5.78;;
68214;SDS011;55036;52.138;5.236;2023-04-16T08:59:32;11.45;;;5.88;;
68214;SDS011;55036;52.138;5.236;2023-04-16T09:01:59;9.52;;;6.05;;
68214;SDS011;55036;52.138;5.236;2023-04-16T09:04:27;10.10;;;5.47;;
68214;SDS011;55036;52.138;5.236;2023-04-16T09:06:55;8.60;;;5.65;;
68214;SDS011;55036;52.138;5.236;2023-04-16T09:09:22;8.43;;;5.43;;
68214;SDS011;55036;52.138;5.236;2023-04-16T09:11:52;9.18;;;5.38;;
68214;SDS011;55036;52.138;5.236;2023-04-16T09:14:19;8.02;;;5.00;;
68214;SDS011;55036;52.138;5.236;2023-04-16T09:16:46;7.60;;;5.30;;
68214;SDS011;55036;52.138;5.236;2023-04-16T09:19:13;8.40;;;5.05;;
68214;SDS011;55036;52.138;5.236;2023-04-16T09:21:41;8.23;;;4.57;;
68214;SDS011;55036;52.138;5.236;2023-04-16T09:24:10;8.82;;;4.25;;
68214;SDS011;55036;52.138;5.236;2023-04-16T09:26:37;8.50;;;4.53;;
68214;SDS011;55036;52.138;5.236;2023-04-16T09:29:04;7.43;;;4.43;;
68214;SDS011;55036;52.138;5.236;2023-04-16T09:31:30;6.65;;;4.35;;
68214;SDS011;55036;52.138;5.236;2023-04-16T09:36:28;8.63;;;4.33;;
68214;SDS011;55036;52.138;5.236;2023-04-16T09:38:56;9.40;;;4.50;;
68214;SDS011;55036;52.138;5.236;2023-04-16T09:41:27;7.70;;;4.10;;
68214;SDS011;55036;52.138;5.236;2023-04-16T09:46:30;10.05;;;4.40;;
68214;SDS011;55036;52.138;5.236;2023-04-16T09:49:09;7.25;;;4.22;;
68214;SDS011;55036;52.138;5.236;2023-04-16T09:51:42;7.10;;;3.85;;
68214;SDS011;55036;52.138;5.236;2023-04-16T09:54:10;7.65;;;3.85;;
68214;SDS011;55036;52.138;5.236;2023-04-16T09:56:40;8.77;;;4.28;;
68214;SDS011;55036;52.138;5.236;2023-04-16T09:59:15;11.13;;;4.10;;
68214;SDS011;55036;52.138;5.236;2023-04-16T10:01:46;8.30;;;4.05;;
68214;SDS011;55036;52.138;5.236;2023-04-16T10:04:15;7.32;;;4.60;;
68214;SDS011;55036;52.138;5.236;2023-04-16T10:06:42;8.68;;;4.03;;
68214;SDS011;55036;52.138;5.236;2023-04-16T10:09:09;8.05;;;4.00;;
68214;SDS011;55036;52.138;5.236;2023-04-16T10:11:36;8.73;;;4.32;;
68214;SDS011;55036;52.138;5.236;2023-04-16T10:14:03;6.10;;;4.43;;
68214;SDS011;55036;52.138;5.236;2023-04-16T10:16:30;9.30;;;4.50;;
68214;SDS011;55036;52.138;5.236;2023-04-16T10:18:58;7.97;;;4.93;;
68214;SDS011;55036;52.138;5.236;2023-04-16T10:21:25;8.57;;;4.93;;
68214;SDS011;55036;52.138;5.236;2023-04-16T10:23:59;9.48;;;5.10;;
68214;SDS011;55036;52.138;5.236;2023-04-16T10:26:28;10.30;;;5.35;;
68214;SDS011;55036;52.138;5.236;2023-04-16T10:28:55;8.38;;;5.50;;
68214;SDS011;55036;52.138;5.236;2023-04-16T10:31:23;12.88;;;5.60;;
68214;SDS011;55036;52.138;5.236;2023-04-16T10:33:52;11.82;;;5.10;;
68214;SDS011;55036;52.138;5.236;2023-04-16T10:36:23;12.27;;;5.70;;
68214;SDS011;55036;52.138;5.236;2023-04-16T10:38:52;8.07;;;5.07;;
68214;SDS011;55036;52.138;5.236;2023-04-16T10:41:23;14.55;;;6.57;;
68214;SDS011;55036;52.138;5.236;2023-04-16T10:43:52;15.82;;;6.60;;
68214;SDS011;55036;52.138;5.236;2023-04-16T10:46:32;12.15;;;6.50;;
68214;SDS011;55036;52.138;5.236;2023-04-16T10:49:13;12.05;;;6.82;;
68214;SDS011;55036;52.138;5.236;2023-04-16T10:51:52;13.43;;;7.68;;
68214;SDS011;55036;52.138;5.236;2023-04-16T10:54:27;16.05;;;7.78;;
68214;SDS011;55036;52.138;5.236;2023-04-16T10:59:23;15.80;;;6.25;;
68214;SDS011;55036;52.138;5.236;2023-04-16T11:01:52;15.20;;;7.05;;
68214;SDS011;55036;52.138;5.236;2023-04-16T11:12:34;9.38;;;6.25;;
68214;SDS011;55036;52.138;5.236;2023-04-16T11:15:08;13.85;;;6.20;;
68214;SDS011;55036;52.138;5.236;2023-04-16T11:20:21;14.32;;;5.88;;
68214;SDS011;55036;52.138;5.236;2023-04-16T11:25:20;15.50;;;7.10;;
68214;SDS011;55036;52.138;5.236;2023-04-16T11:27:54;15.38;;;7.53;;
68214;SDS011;55036;52.138;5.236;2023-04-16T11:30:30;16.48;;;8.65;;
68214;SDS011;55036;52.138;5.236;2023-04-16T11:33:06;17.63;;;7.80;;
68214;SDS011;55036;52.138;5.236;2023-04-16T11:35:34;24.88;;;8.70;;
68214;SDS011;55036;52.138;5.236;2023-04-16T11:38:01;19.23;;;8.02;;
68214;SDS011;55036;52.138;5.236;2023-04-16T11:40:28;16.02;;;7.68;;
68214;SDS011;55036;52.138;5.236;2023-04-16T11:43:00;17.83;;;8.10;;
68214;SDS011;55036;52.138;5.236;2023-04-16T11:45:37;17.63;;;8.05;;
68214;SDS011;55036;52.138;5.236;2023-04-16T11:48:04;15.82;;;7.95;;
68214;SDS011;55036;52.138;5.236;2023-04-16T11:50:32;15.32;;;7.70;;
68214;SDS011;55036;52.138;5.236;2023-04-16T11:53:03;14.05;;;7.22;;
68214;SDS011;55036;52.138;5.236;2023-04-16T11:55:30;16.67;;;7.73;;
68214;SDS011;55036;52.138;5.236;2023-04-16T11:57:57;19.33;;;7.85;;
68214;SDS011;55036;52.138;5.236;2023-04-16T12:00:37;17.10;;;8.07;;
68214;SDS011;55036;52.138;5.236;2023-04-16T12:03:03;17.48;;;8.05;;
68214;SDS011;55036;52.138;5.236;2023-04-16T12:05:37;24.67;;;8.88;;
68214;SDS011;55036;52.138;5.236;2023-04-16T12:08:06;21.10;;;8.40;;
68214;SDS011;55036;52.138;5.236;2023-04-16T12:10:35;18.70;;;7.57;;
68214;SDS011;55036;52.138;5.236;2023-04-16T12:15:46;13.70;;;6.75;;
68214;SDS011;55036;52.138;5.236;2023-04-16T12:18:13;12.15;;;7.00;;
68214;SDS011;55036;52.138;5.236;2023-04-16T12:20:43;16.98;;;7.60;;
68214;SDS011;55036;52.138;5.236;2023-04-16T12:23:27;16.67;;;7.57;;
68214;SDS011;55036;52.138;5.236;2023-04-16T12:25:58;13.48;;;6.80;;
68214;SDS011;55036;52.138;5.236;2023-04-16T12:28:36;17.55;;;7.32;;
68214;SDS011;55036;52.138;5.236;2023-04-16T12:31:03;19.67;;;8.48;;
68214;SDS011;55036;52.138;5.236;2023-04-16T12:33:31;20.20;;;9.00;;
68214;SDS011;55036;52.138;5.236;2023-04-16T12:35:57;21.83;;;8.77;;
68214;SDS011;55036;52.138;5.236;2023-04-16T12:38:25;18.42;;;8.30;;
68214;SDS011;55036;52.138;5.236;2023-04-16T12:40:52;15.90;;;8.13;;
68214;SDS011;55036;52.138;5.236;2023-04-16T12:43:22;15.55;;;8.20;;
68214;SDS011;55036;52.138;5.236;2023-04-16T12:45:49;19.95;;;8.50;;
68214;SDS011;55036;52.138;5.236;2023-04-16T12:48:16;17.00;;;7.97;;
68214;SDS011;55036;52.138;5.236;2023-04-16T12:50:42;19.17;;;8.63;;
68214;SDS011;55036;52.138;5.236;2023-04-16T12:53:09;18.92;;;8.63;;
68214;SDS011;55036;52.138;5.236;2023-04-16T12:55:36;16.30;;;8.15;;
68214;SDS011;55036;52.138;5.236;2023-04-16T12:58:03;13.75;;;7.57;;
68214;SDS011;55036;52.138;5.236;2023-04-16T13:00:30;16.05;;;7.22;;
68214;SDS011;55036;52.138;5.236;2023-04-16T13:02:56;14.38;;;7.28;;
68214;SDS011;55036;52.138;5.236;2023-04-16T13:05:23;16.60;;;7.80;;
68214;SDS011;55036;52.138;5.236;2023-04-16T13:07:50;15.55;;;8.48;;
68214;SDS011;55036;52.138;5.236;2023-04-16T13:10:19;14.50;;;7.72;;
68214;SDS011;55036;52.138;5.236;2023-04-16T13:12:47;16.55;;;7.88;;
68214;SDS011;55036;52.138;5.236;2023-04-16T13:15:14;17.80;;;8.48;;
68214;SDS011;55036;52.138;5.236;2023-04-16T13:17:40;16.70;;;7.80;;
68214;SDS011;55036;52.138;5.236;2023-04-16T13:20:07;17.35;;;8.73;;
68214;SDS011;55036;52.138;5.236;2023-04-16T13:22:34;13.27;;;8.80;;
68214;SDS011;55036;52.138;5.236;2023-04-16T13:25:01;14.35;;;8.68;;
68214;SDS011;55036;52.138;5.236;2023-04-16T13:27:28;17.17;;;9.32;;
68214;SDS011;55036;52.138;5.236;2023-04-16T13:29:57;14.70;;;9.38;;
68214;SDS011;55036;52.138;5.236;2023-04-16T13:32:23;15.05;;;9.13;;
68214;SDS011;55036;52.138;5.236;2023-04-16T13:34:50;15.68;;;9.13;;
68214;SDS011;55036;52.138;5.236;2023-04-16T13:37:17;18.70;;;9.30;;
68214;SDS011;55036;52.138;5.236;2023-04-16T13:39:43;18.98;;;9.10;;
68214;SDS011;55036;52.138;5.236;2023-04-16T13:42:10;18.02;;;9.95;;
68214;SDS011;55036;52.138;5.236;2023-04-16T13:44:37;19.77;;;10.02;;
68214;SDS011;55036;52.138;5.236;2023-04-16T13:47:03;18.13;;;8.80;;
68214;SDS011;55036;52.138;5.236;2023-04-16T13:49:30;17.85;;;10.00;;
68214;SDS011;55036;52.138;5.236;2023-04-16T13:52:00;19.25;;;10.02;;
68214;SDS011;55036;52.138;5.236;2023-04-16T13:54:27;23.52;;;10.05;;
68214;SDS011;55036;52.138;5.236;2023-04-16T13:56:54;18.80;;;9.65;;
68214;SDS011;55036;52.138;5.236;2023-04-16T13:59:21;22.05;;;10.13;;
68214;SDS011;55036;52.138;5.236;2023-04-16T14:01:47;18.33;;;9.82;;
68214;SDS011;55036;52.138;5.236;2023-04-16T14:04:14;21.48;;;10.50;;
68214;SDS011;55036;52.138;5.236;2023-04-16T14:06:41;19.65;;;10.57;;
68214;SDS011;55036;52.138;5.236;2023-04-16T14:09:08;22.13;;;10.60;;
68214;SDS011;55036;52.138;5.236;2023-04-16T14:11:36;17.85;;;9.40;;
68214;SDS011;55036;52.138;5.236;2023-04-16T14:14:02;17.55;;;9.40;;
68214;SDS011;55036;52.138;5.236;2023-04-16T14:16:30;20.00;;;10.18;;
68214;SDS011;55036;52.138;5.236;2023-04-16T14:18:56;22.40;;;10.45;;
68214;SDS011;55036;52.138;5.236;2023-04-16T14:21:23;24.75;;;13.98;;
68214;SDS011;55036;52.138;5.236;2023-04-16T14:23:50;87.68;;;49.80;;
68214;SDS011;55036;52.138;5.236;2023-04-16T14:26:16;23.75;;;15.88;;
68214;SDS011;55036;52.138;5.236;2023-04-16T14:28:43;18.02;;;11.18;;
68214;SDS011;55036;52.138;5.236;2023-04-16T14:31:10;19.92;;;8.85;;
68214;SDS011;55036;52.138;5.236;2023-04-16T14:33:36;20.98;;;10.80;;
68214;SDS011;55036;52.138;5.236;2023-04-16T14:36:03;19.48;;;10.40;;
68214;SDS011;55036;52.138;5.236;2023-04-16T14:38:30;19.05;;;11.57;;
68214;SDS011;55036;52.138;5.236;2023-04-16T14:40:57;20.15;;;9.60;;
68214;SDS011;55036;52.138;5.236;2023-04-16T14:43:25;16.90;;;9.57;;
68214;SDS011;55036;52.138;5.236;2023-04-16T14:45:52;24.27;;;9.95;;
68214;SDS011;55036;52.138;5.236;2023-04-16T14:48:19;23.60;;;12.48;;
68214;SDS011;55036;52.138;5.236;2023-04-16T14:50:46;23.27;;;13.85;;
68214;SDS011;55036;52.138;5.236;2023-04-16T14:53:12;23.33;;;11.25;;
68214;SDS011;55036;52.138;5.236;2023-04-16T14:55:39;16.98;;;8.70;;
68214;SDS011;55036;52.138;5.236;2023-04-16T14:58:06;18.10;;;10.40;;
68214;SDS011;55036;52.138;5.236;2023-04-16T15:00:35;17.70;;;9.20;;
68214;SDS011;55036;52.138;5.236;2023-04-16T15:03:02;18.83;;;9.23;;
68214;SDS011;55036;52.138;5.236;2023-04-16T15:05:30;17.20;;;9.43;;